Time;durP1;ratioP1;P1;durP2;ratioP2;P2;SDS_P1;SDS_P2;PMS_P1;PMS_P2;Temp;Humidity;BMP_temperature;BMP_pressure;BME280_temperature;BME280_humidity;BME280_pressure;Samples;Min_cycle;Max_cycle;Signal;HPM_P1;HPM_P2
2023/02/23 00:01:22;;;;;;;;;;;;;;;;;;5109822;28;20410;-65
2023/02/23 00:03:48;;;;;;;;;;;;;;;;;;5113569;28;19920;-65
2023/02/23 00:06:14;;;;;;;;;;;;;;;;;;5112509;28;20001;-65
2023/02/23 00:08:40;;;;;;;;;;;;;;;;;;5112628;28;19932;-65
2023/02/23 00:11:06;;;;;;;;;;;;;;;;;;5113217;28;19956;-65
2023/02/23 00:13:34;;;;;;;;;;;;;;;;;;5113654;28;19924;-65
2023/02/23 00:16:02;;;;;;;;;;;;;;;;;;5112401;28;19923;-65
2023/02/23 00:18:28;;;;;;;;;;;;;;;;;;5112649;28;19977;-66
2023/02/23 00:20:56;;;;;;;;;;;;;;;;;;5112831;27;19928;-65
2023/02/23 00:23:22;;;;;;;;;;;;;;;;;;5109734;28;19920;-65
2023/02/23 00:25:48;;;;;;;;;;;;;;;;;;5112761;28;20365;-65
2023/02/23 00:28:14;;;;;;;;;;;;;;;;;;5117784;27;19926;-65
2023/02/23 00:30:40;;;;;;;;;;;;;;;;;;5109458;28;19928;-65
2023/02/23 00:33:06;;;;;;;;;;;;;;;;;;5128351;27;19923;-66
2023/02/23 00:35:32;;;;;;;;;;;;;;;;;;5112004;28;19920;-66
2023/02/23 00:37:58;;;;;;;;;;;;;;;;;;5109519;28;19924;-65
2023/02/23 00:40:24;;;;;;;;;;;;;;;;;;5110793;28;20361;-66
2023/02/23 00:42:51;;;;;;;;;;;;;;;;;;5111895;28;19923;-65
2023/02/23 00:45:18;;;;;;;;;;;;;;;;;;5113046;28;19923;-65
2023/02/23 00:47:47;;;;;;;;;;;;;;;;;;5112191;28;20399;-65
2023/02/23 00:50:16;;;;;;;;;;;;;;;;;;5113570;28;20413;-66
2023/02/23 00:52:42;;;;;;;;;;;;;;;;;;5112270;28;19930;-66
2023/02/23 00:55:08;;;;;;;;;;;;;;;;;;5109603;28;19924;-66
2023/02/23 00:57:34;;;;;;;;;;;;;;;;;;5093047;28;19920;-66
2023/02/23 01:00:00;;;;;;;;;;;;;;;;;;5093515;28;19924;-66
2023/02/23 01:02:29;;;;;;;;;;;;;;;;;;5103460;28;19927;-66
2023/02/23 01:04:55;;;;;;;;;;;;;;;;;;5113867;28;19920;-66
2023/02/23 01:07:24;;;;;;;;;;;;;;;;;;5113498;28;19920;-66
2023/02/23 01:09:50;;;;;;;;;;;;;;;;;;5113278;28;19928;-66
2023/02/23 01:12:16;;;;;;;;;;;;;;;;;;5101873;28;20003;-66
2023/02/23 01:14:42;;;;;;;;;;;;;;;;;;5113136;28;20401;-67
2023/02/23 01:17:08;;;;;;;;;;;;;;;;;;5113291;28;19945;-66
2023/02/23 01:19:33;;;;;;;;;;;;;;;;;;5113208;28;19928;-66
2023/02/23 01:22:01;;;;;;;;;;;;;;;;;;5112768;27;20253;-66
2023/02/23 01:24:27;;;;;;;;;;;;;;;;;;5111586;28;19992;-66
2023/02/23 01:26:52;;;;;;;;;;;;;;;;;;5102707;28;20372;-66
2023/02/23 01:29:18;;;;;;;;;;;;;;;;;;5111406;28;19976;-66
2023/02/23 01:31:44;;;;;;;;;;;;;;;;;;5111803;28;20655;-66
2023/02/23 01:34:10;;;;;;;;;;;;;;;;;;5111025;28;20018;-66
2023/02/23 01:36:37;;;;;;;;;;;;;;;;;;5103516;28;19974;-66
2023/02/23 01:39:05;;;;;;;;;;;;;;;;;;5097579;28;20433;-66
2023/02/23 01:41:31;;;;;;;;;;;;;;;;;;5112691;28;19970;-66
2023/02/23 01:43:57;;;;;;;;;;;;;;;;;;5111119;28;19928;-66
2023/02/23 01:46:23;;;;;;;;;;;;;;;;;;5100906;28;19973;-66
2023/02/23 01:48:49;;;;;;;;;;;;;;;;;;5107111;28;19924;-66
2023/02/23 01:51:16;;;;;;;;;;;;;;;;;;5107457;28;19919;-66
2023/02/23 01:53:42;;;;;;;;;;;;;;;;;;5112198;28;19951;-66
2023/02/23 01:56:11;;;;;;;;;;;;;;;;;;5108489;28;20270;-67
2023/02/23 01:58:37;;;;;;;;;;;;;;;;;;5111254;28;19942;-66
2023/02/23 02:01:03;;;;;;;;;;;;;;;;;;5109781;28;20418;-66
2023/02/23 02:03:29;;;;;;;;;;;;;;;;;;5105185;28;19963;-67
2023/02/23 02:05:55;;;;;;;;;;;;;;;;;;5111832;28;20567;-66
2023/02/23 02:08:23;;;;;;;;;;;;;;;;;;5111205;28;19934;-66
2023/02/23 02:10:53;;;;;;;;;;;;;;;;;;5111348;28;19928;-66
2023/02/23 02:13:19;;;;;;;;;;;;;;;;;;5109257;28;19951;-66
2023/02/23 02:15:52;;;;;;;;;;;;;;;;;;5112052;28;19958;-66
2023/02/23 02:18:22;;;;;;;;;;;;;;;;;;5109992;28;19919;-66
2023/02/23 02:20:51;;;;;;;;;;;;;;;;;;5106552;28;20331;-66
2023/02/23 02:23:17;;;;;;;;;;;;;;;;;;5110583;28;20002;-66
2023/02/23 02:25:43;;;;;;;;;;;;;;;;;;5112258;28;20010;-66
2023/02/23 02:28:09;;;;;;;;;;;;;;;;;;5131598;27;19923;-66
2023/02/23 02:30:36;;;;;;;;;;;;;;;;;;5112023;28;19953;-66
2023/02/23 02:33:02;;;;;;;;;;;;;;;;;;5111814;28;19955;-66
2023/02/23 02:35:28;;;;;;;;;;;;;;;;;;5114289;28;20399;-66
2023/02/23 02:37:55;;;;;;;;;;;;;;;;;;5111527;28;20455;-66
2023/02/23 02:40:21;;;;;;;;;;;;;;;;;;5114489;28;19931;-67
2023/02/23 02:42:47;;;;;;;;;;;;;;;;;;5115023;28;19919;-67
2023/02/23 02:45:13;;;;;;;;;;;;;;;;;;5115621;28;19927;-67
2023/02/23 02:47:39;;;;;;;;;;;;;;;;;;5093636;28;19928;-67
2023/02/23 02:50:05;;;;;;;;;;;;;;;;;;5115139;28;20443;-67
2023/02/23 02:52:31;;;;;;;;;;;;;;;;;;5114094;27;20350;-67
2023/02/23 02:54:57;;;;;;;;;;;;;;;;;;5112639;28;19923;-67
2023/02/23 02:57:23;;;;;;;;;;;;;;;;;;5113187;28;19924;-67
2023/02/23 04:18:43;;;;;;;;;;;;;;;;;;5106321;28;19947;-65
2023/02/23 04:21:09;;;;;;;;;;;;;;;;;;5107875;28;20010;-66
2023/02/23 04:23:35;;;;;;;;;;;;;;;;;;5113240;28;19920;-65
2023/02/23 04:26:01;;;;;;;;;;;;;;;;;;5110923;28;19965;-65
2023/02/23 04:28:27;;;;;;;;;;;;;;;;;;5105397;28;19977;-66
2023/02/23 04:30:53;;;;;;;;;;;;;;;;;;5094061;28;20007;-66
2023/02/23 04:33:19;;;;;;;;;;;;;;;;;;5109973;28;20284;-66
2023/02/23 04:35:44;;;;;;;;;;;;;;;;;;5112674;28;20470;-65
2023/02/23 04:38:10;;;;;;;;;;;;;;;;;;5111207;28;19919;-66
2023/02/23 04:40:36;;;;;;;;;;;;;;;;;;5112207;28;20296;-66
2023/02/23 04:43:02;;;;;;;;;;;;;;;;;;5110950;28;19920;-66
2023/02/23 04:45:28;;;;;;;;;;;;;;;;;;5107188;28;19977;-66
2023/02/23 04:47:55;;;;;;;;;;;;;;;;;;5100339;28;20460;-66
2023/02/23 04:50:20;;;;;;;;;;;;;;;;;;5106011;28;19934;-66
2023/02/23 04:52:46;;;;;;;;;;;;;;;;;;5103296;28;19923;-66
2023/02/23 04:55:12;;;;;;;;;;;;;;;;;;5105794;28;20358;-66
2023/02/23 04:57:38;;;;;;;;;;;;;;;;;;5102628;28;19931;-66
2023/02/23 05:00:04;;;;;;;;;;;;;;;;;;5106086;28;19920;-66
2023/02/23 05:02:30;;;;;;;;;;;;;;;;;;5099491;28;19942;-66
2023/02/23 05:04:56;;;;;;;;;;;;;;;;;;5110966;28;20390;-66
2023/02/23 05:07:22;;;;;;;;;;;;;;;;;;5101853;28;19924;-66
2023/02/23 05:09:48;;;;;;;;;;;;;;;;;;5106464;28;19924;-66
2023/02/23 05:12:14;;;;;;;;;;;;;;;;;;5110956;28;20277;-66
2023/02/23 05:14:40;;;;;;;;;;;;;;;;;;5111458;28;20233;-66
2023/02/23 05:17:07;;;;;;;;;;;;;;;;;;5110222;28;19919;-66
2023/02/23 05:19:32;;;;;;;;;;;;;;;;;;5108142;28;19924;-66
2023/02/23 05:21:58;;;;;;;;;;;;;;;;;;5100228;28;20376;-66
2023/02/23 05:24:24;;;;;;;;;;;;;;;;;;5112678;28;19923;-66
2023/02/23 05:26:50;;;;;;;;;;;;;;;;;;5109538;28;19943;-66
2023/02/23 05:29:16;;;;;;;;;;;;;;;;;;5103758;28;20010;-66
2023/02/23 05:31:42;;;;;;;;;;;;;;;;;;5097751;28;19920;-66
2023/02/23 05:34:09;;;;;;;;;;;;;;;;;;5101434;28;19942;-66
2023/02/23 05:36:35;;;;;;;;;;;;;;;;;;5107962;28;19919;-66
2023/02/23 05:39:01;;;;;;;;;;;;;;;;;;5112079;28;19950;-66
2023/02/23 05:41:27;;;;;;;;;;;;;;;;;;5107601;28;19920;-66
2023/02/23 05:43:53;;;;;;;;;;;;;;;;;;5103149;28;19965;-66
2023/02/23 05:46:19;;;;;;;;;;;;;;;;;;5107031;28;19920;-66
2023/02/23 05:48:45;;;;;;;;;;;;;;;;;;5107071;28;19928;-66
2023/02/23 05:51:11;;;;;;;;;;;;;;;;;;5105218;27;19924;-66
2023/02/23 05:53:37;;;;;;;;;;;;;;;;;;5112723;28;20352;-66
2023/02/23 05:56:02;;;;;;;;;;;;;;;;;;5109920;28;19920;-66
2023/02/23 05:58:29;;;;;;;;;;;;;;;;;;5111402;28;19927;-66
2023/02/23 06:00:55;;;;;;;;;;;;;;;;;;5109145;28;19926;-66
2023/02/23 06:03:21;;;;;;;;;;;;;;;;;;5101540;28;19920;-66
2023/02/23 06:05:47;;;;;;;;;;;;;;;;;;5109067;28;19976;-66
2023/02/23 06:08:13;;;;;;;;;;;;;;;;;;5112122;28;20488;-66
2023/02/23 06:10:39;;;;;;;;;;;;;;;;;;5102627;28;19924;-66
2023/02/23 06:13:04;;;;;;;;;;;;;;;;;;5092132;28;19924;-66
2023/02/23 06:15:30;;;;;;;;;;;;;;;;;;5107185;28;19924;-66
2023/02/23 06:17:56;;;;;;;;;;;;;;;;;;5106629;28;19969;-66
2023/02/23 06:20:22;;;;;;;;;;;;;;;;;;5105265;28;20316;-66
2023/02/23 06:22:48;;;;;;;;;;;;;;;;;;5108487;28;19920;-66
2023/02/23 06:25:14;;;;;;;;;;;;;;;;;;5108051;28;19958;-66
2023/02/23 06:27:41;;;;;;;;;;;;;;;;;;5106890;28;20326;-66
2023/02/23 06:30:06;;;;;;;;;;;;;;;;;;5110785;28;19928;-66
2023/02/23 06:32:32;;;;;;;;;;;;;;;;;;5112332;28;20378;-66
2023/02/23 06:34:58;;;;;;;;;;;;;;;;;;5097012;28;19924;-66
2023/02/23 06:37:24;;;;;;;;;;;;;;;;;;5102753;28;19920;-66
2023/02/23 06:39:50;;;;;;;;;;;;;;;;;;5108773;28;19926;-66
2023/02/23 06:42:16;;;;;;;;;;;;;;;;;;5111999;28;19928;-66
2023/02/23 06:44:42;;;;;;;;;;;;;;;;;;5111641;28;19969;-66
2023/02/23 06:47:09;;;;;;;;;;;;;;;;;;5110029;28;19920;-66
2023/02/23 06:49:35;;;;;;;;;;;;;;;;;;5109582;28;20027;-66
2023/02/23 06:52:01;;;;;;;;;;;;;;;;;;5110092;28;19919;-66
2023/02/23 06:54:27;;;;;;;;;;;;;;;;;;5106166;28;19988;-66
2023/02/23 06:56:55;;;;;;;;;;;;;;;;;;5103714;28;19920;-66
2023/02/23 06:59:22;;;;;;;;;;;;;;;;;;5108559;28;22317;-66
2023/02/23 07:01:48;;;;;;;;;;;;;;;;;;5106569;28;20299;-66
2023/02/23 07:04:14;;;;;;;;;;;;;;;;;;5102669;28;19945;-66
2023/02/23 07:06:40;;;;;;;;;;;;;;;;;;5102231;28;20022;-66
2023/02/23 07:09:06;;;;;;;;;;;;;;;;;;5108405;28;19924;-66
2023/02/23 07:11:32;;;;;;;;;;;;;;;;;;5101227;28;20003;-66
2023/02/23 07:13:58;;;;;;;;;;;;;;;;;;5112881;28;20269;-66
2023/02/23 07:16:26;;;;;;;;;;;;;;;;;;5111349;28;20288;-66
2023/02/23 07:18:52;;;;;;;;;;;;;;;;;;5107922;28;20298;-66
2023/02/23 07:21:19;;;;;;;;;;;;;;;;;;5109524;28;20014;-66
2023/02/23 07:23:46;;;;;;;;;;;;;;;;;;5108575;28;19972;-66
2023/02/23 07:26:14;;;;;;;;;;;;;;;;;;5112089;28;20429;-66
2023/02/23 07:28:40;;;;;;;;;;;;;;;;;;5106795;28;19935;-66
2023/02/23 07:31:06;;;;;;;;;;;;;;;;;;5111691;28;19920;-66
2023/02/23 07:33:32;;;;;;;;;;;;;;;;;;5113606;28;19924;-66
2023/02/23 07:35:58;;;;;;;;;;;;;;;;;;5104517;28;19934;-66
2023/02/23 07:38:24;;;;;;;;;;;;;;;;;;5105847;28;19989;-66
2023/02/23 07:40:50;;;;;;;;;;;;;;;;;;5104351;28;19920;-66
2023/02/23 07:43:15;;;;;;;;;;;;;;;;;;5113140;28;20376;-66
2023/02/23 07:45:42;;;;;;;;;;;;;;;;;;5107582;28;19970;-66
2023/02/23 07:48:08;;;;;;;;;;;;;;;;;;5097134;28;20401;-66
2023/02/23 07:50:34;;;;;;;;;;;;;;;;;;5103938;28;19938;-66
2023/02/23 07:53:00;;;;;;;;;;;;;;;;;;5105246;28;19919;-66
2023/02/23 07:55:26;;;;;;;;;;;;;;;;;;5102426;28;20364;-66
2023/02/23 07:57:52;;;;;;;;;;;;;;;;;;5104799;28;20398;-66
2023/02/23 08:00:18;;;;;;;;;;;;;;;;;;5107623;28;19924;-66
2023/02/23 08:02:44;;;;;;;;;;;;;;;;;;5106917;28;19920;-66
2023/02/23 08:05:09;;;;;;;;;;;;;;;;;;5113253;28;19926;-66
2023/02/23 08:07:35;;;;;;;;;;;;;;;;;;5112676;28;19943;-66
2023/02/23 08:10:01;;;;;;;;;;;;;;;;;;5103945;28;19938;-67
2023/02/23 08:12:27;;;;;;;;;;;;;;;;;;5109718;28;19924;-66
2023/02/23 08:14:53;;;;;;;;;;;;;;;;;;5112612;27;20568;-66
2023/02/23 08:17:19;;;;;;;;;;;;;;;;;;5104870;28;19924;-66
2023/02/23 08:19:45;;;;;;;;;;;;;;;;;;5111899;28;19930;-66
2023/02/23 08:22:11;;;;;;;;;;;;;;;;;;5113419;27;19923;-66
2023/02/23 08:24:36;;;;;;;;;;;;;;;;;;5111006;28;19924;-66
2023/02/23 08:27:02;;;;;;;;;;;;;;;;;;5112570;28;19920;-66
2023/02/23 08:29:28;;;;;;;;;;;;;;;;;;5109146;28;20308;-66
2023/02/23 08:31:55;;;;;;;;;;;;;;;;;;5113069;28;20254;-66
2023/02/23 08:34:21;;;;;;;;;;;;;;;;;;5110724;27;19928;-66
2023/02/23 08:36:47;;;;;;;;;;;;;;;;;;5101525;27;19927;-66
2023/02/23 08:39:13;;;;;;;;;;;;;;;;;;5100242;27;20388;-66
2023/02/23 08:41:39;;;;;;;;;;;;;;;;;;5117070;27;19931;-66
2023/02/23 08:44:05;;;;;;;;;;;;;;;;;;5112824;28;19919;-66
2023/02/23 08:46:30;;;;;;;;;;;;;;;;;;5109585;28;20371;-66
2023/02/23 08:48:56;;;;;;;;;;;;;;;;;;5100384;28;20050;-66
2023/02/23 08:51:22;;;;;;;;;;;;;;;;;;5094840;28;19923;-66
2023/02/23 08:53:48;;;;;;;;;;;;;;;;;;5102506;28;20491;-66
2023/02/23 08:56:14;;;;;;;;;;;;;;;;;;5113890;28;19923;-66
2023/02/23 08:58:40;;;;;;;;;;;;;;;;;;5097120;28;19951;-66
2023/02/23 09:01:06;;;;;;;;;;;;;;;;;;5093443;28;19927;-66
2023/02/23 09:03:32;;;;;;;;;;;;;;;;;;5093880;28;20597;-66
2023/02/23 09:05:58;;;;;;;;;;;;;;;;;;5096871;28;19923;-66
2023/02/23 09:08:24;;;;;;;;;;;;;;;;;;5094820;28;19920;-65
2023/02/23 09:10:50;;;;;;;;;;;;;;;;;;5078761;28;19963;-66
2023/02/23 09:13:16;;;;;;;;;;;;;;;;;;5088909;28;19928;-65
2023/02/23 09:15:42;;;;;;;;;;;;;;;;;;5099066;28;20608;-66
2023/02/23 09:18:08;;;;;;;;;;;;;;;;;;5085604;28;19974;-65
2023/02/23 09:20:34;;;;;;;;;;;;;;;;;;5083511;28;19920;-65
2023/02/23 09:23:00;;;;;;;;;;;;;;;;;;5091368;28;20435;-66
2023/02/23 09:25:28;;;;;;;;;;;;;;;;;;5083224;28;19995;-65
2023/02/23 09:27:55;;;;;;;;;;;;;;;;;;5072974;28;19924;-66
2023/02/23 09:30:21;;;;;;;;;;;;;;;;;;5072796;28;19924;-65
2023/02/23 09:32:47;;;;;;;;;;;;;;;;;;5089801;28;19985;-65
2023/02/23 09:35:16;;;;;;;;;;;;;;;;;;5092030;28;19977;-65
2023/02/23 09:37:44;;;;;;;;;;;;;;;;;;5091076;28;19964;-65
2023/02/23 09:40:10;;;;;;;;;;;;;;;;;;5096904;28;19920;-65
2023/02/23 09:42:36;;;;;;;;;;;;;;;;;;5091431;28;20273;-65
2023/02/23 09:45:01;;;;;;;;;;;;;;;;;;5072122;28;19974;-66
2023/02/23 09:47:29;;;;;;;;;;;;;;;;;;5089578;28;19989;-65
2023/02/23 09:49:55;;;;;;;;;;;;;;;;;;5105536;28;19927;-66
2023/02/23 09:52:21;;;;;;;;;;;;;;;;;;5107210;28;19928;-66
2023/02/23 09:54:47;;;;;;;;;;;;;;;;;;5104818;28;20084;-66
2023/02/23 09:57:13;;;;;;;;;;;;;;;;;;5109673;28;19928;-66
2023/02/23 09:59:39;;;;;;;;;;;;;;;;;;5105810;28;20002;-66
2023/02/23 10:02:05;;;;;;;;;;;;;;;;;;5109819;28;20045;-65
2023/02/23 10:04:31;;;;;;;;;;;;;;;;;;5065844;22;19925;-64
2023/02/23 10:06:57;;;;;;;;;;;;;;;;;;5060897;28;19932;-64
2023/02/23 10:09:23;;;;;;;;;;;;;;;;;;5051813;28;20281;-65
2023/02/23 10:11:50;;;;;;;;;;;;;;;;;;5065033;28;20003;-65
2023/02/23 10:14:16;;;;;;;;;;;;;;;;;;5051917;28;19929;-65
2023/02/23 10:16:42;;;;;;;;;;;;;;;;;;5068128;28;20384;-65
2023/02/23 10:19:08;;;;;;;;;;;;;;;;;;5070713;28;19920;-65
2023/02/23 10:21:34;;;;;;;;;;;;;;;;;;5065261;28;20037;-65
2023/02/23 10:23:59;;;;;;;;;;;;;;;;;;5064336;28;19924;-65
2023/02/23 10:26:25;;;;;;;;;;;;;;;;;;5068781;28;20416;-65
2023/02/23 10:28:51;;;;;;;;;;;;;;;;;;5066892;28;19920;-65
2023/02/23 10:31:17;;;;;;;;;;;;;;;;;;5051981;28;19936;-65
2023/02/23 10:33:43;;;;;;;;;;;;;;;;;;5067817;28;20259;-65
2023/02/23 10:36:10;;;;;;;;;;;;;;;;;;5071064;28;19927;-65
2023/02/23 10:38:36;;;;;;;;;;;;;;;;;;5054704;28;19928;-65
2023/02/23 10:41:03;;;;;;;;;;;;;;;;;;5045201;28;19927;-65
2023/02/23 10:43:28;;;;;;;;;;;;;;;;;;5071780;28;20289;-65
2023/02/23 10:45:54;;;;;;;;;;;;;;;;;;5074010;28;19998;-65
2023/02/23 10:48:20;;;;;;;;;;;;;;;;;;5074310;28;19931;-65
2023/02/23 10:50:47;;;;;;;;;;;;;;;;;;5073422;28;19925;-65
2023/02/23 10:53:16;;;;;;;;;;;;;;;;;;5062175;28;19929;-65
2023/02/23 10:55:42;;;;;;;;;;;;;;;;;;5063178;28;19921;-65
2023/02/23 10:58:08;;;;;;;;;;;;;;;;;;5054923;28;20373;-65
2023/02/23 11:00:35;;;;;;;;;;;;;;;;;;5062071;28;19927;-65
2023/02/23 11:03:03;;;;;;;;;;;;;;;;;;5074300;28;19943;-65
2023/02/23 11:05:29;;;;;;;;;;;;;;;;;;5071324;28;19936;-63
2023/02/23 11:07:55;;;;;;;;;;;;;;;;;;5072074;28;19921;-65
2023/02/23 11:10:21;;;;;;;;;;;;;;;;;;5062602;28;20380;-65
2023/02/23 11:12:48;;;;;;;;;;;;;;;;;;5070467;28;19932;-66
2023/02/23 11:15:14;;;;;;;;;;;;;;;;;;5072686;28;19928;-64
2023/02/23 11:17:40;;;;;;;;;;;;;;;;;;5060989;28;19946;-64
2023/02/23 11:20:06;;;;;;;;;;;;;;;;;;5062809;28;20302;-64
2023/02/23 11:22:32;;;;;;;;;;;;;;;;;;5076204;28;19966;-65
2023/02/23 11:24:58;;;;;;;;;;;;;;;;;;5073219;28;19920;-65
2023/02/23 11:27:24;;;;;;;;;;;;;;;;;;5073534;28;19974;-65
2023/02/23 11:29:51;;;;;;;;;;;;;;;;;;5056398;28;20289;-65
2023/02/23 11:32:18;;;;;;;;;;;;;;;;;;5073370;28;20008;-65
2023/02/23 11:34:43;;;;;;;;;;;;;;;;;;5073346;28;20015;-65
2023/02/23 11:37:12;;;;;;;;;;;;;;;;;;5072855;28;20019;-65
2023/02/23 11:39:38;;;;;;;;;;;;;;;;;;5037517;28;20382;-65
2023/02/23 11:42:04;;;;;;;;;;;;;;;;;;5074348;28;19968;-65
2023/02/23 11:44:29;;;;;;;;;;;;;;;;;;5056287;28;19967;-65
2023/02/23 11:46:57;;;;;;;;;;;;;;;;;;5066861;28;19973;-65
2023/02/23 11:49:23;;;;;;;;;;;;;;;;;;5074431;28;19921;-65
2023/02/23 11:51:49;;;;;;;;;;;;;;;;;;5073924;28;20354;-65
2023/02/23 11:54:14;;;;;;;;;;;;;;;;;;5056028;28;20392;-65
2023/02/23 11:56:40;;;;;;;;;;;;;;;;;;5069028;28;19928;-65
2023/02/23 11:59:07;;;;;;;;;;;;;;;;;;5064386;28;20338;-65
2023/02/23 12:01:33;;;;;;;;;;;;;;;;;;5073671;28;20328;-65
2023/02/23 12:03:58;;;;;;;;;;;;;;;;;;5069333;28;19925;-65
2023/02/23 12:06:28;;;;;;;;;;;;;;;;;;5057485;28;19924;-65
2023/02/23 12:08:58;;;;;;;;;;;;;;;;;;5057119;28;20046;-65
2023/02/23 12:11:24;;;;;;;;;;;;;;;;;;5073708;28;19951;-65
2023/02/23 12:13:50;;;;;;;;;;;;;;;;;;5042607;28;20385;-64
2023/02/23 12:16:16;;;;;;;;;;;;;;;;;;5073052;28;19932;-65
2023/02/23 12:18:42;;;;;;;;;;;;;;;;;;5060696;28;19924;-65
2023/02/23 12:21:08;;;;;;;;;;;;;;;;;;5064776;28;20269;-64
2023/02/23 12:23:35;;;;;;;;;;;;;;;;;;5064962;28;19921;-65
2023/02/23 12:26:01;;;;;;;;;;;;;;;;;;5035370;28;20274;-65
2023/02/23 12:28:28;;;;;;;;;;;;;;;;;;5055135;28;19920;-65
2023/02/23 12:30:54;;;;;;;;;;;;;;;;;;5071265;28;20077;-65
2023/02/23 12:33:20;;;;;;;;;;;;;;;;;;5070599;28;20011;-65
2023/02/23 12:35:46;;;;;;;;;;;;;;;;;;5071623;28;20376;-65
2023/02/23 12:38:12;;;;;;;;;;;;;;;;;;5069226;28;19925;-65
2023/02/23 12:40:40;;;;;;;;;;;;;;;;;;5065542;28;19924;-65
2023/02/23 12:43:07;;;;;;;;;;;;;;;;;;5063492;28;20339;-65
2023/02/23 12:45:33;;;;;;;;;;;;;;;;;;5062793;28;19921;-65
2023/02/23 12:47:59;;;;;;;;;;;;;;;;;;5064142;28;19970;-64
2023/02/23 12:50:25;;;;;;;;;;;;;;;;;;5063186;28;20433;-63
2023/02/23 12:52:52;;;;;;;;;;;;;;;;;;5063703;28;19928;-64
2023/02/23 12:55:18;;;;;;;;;;;;;;;;;;5072252;28;19974;-64
2023/02/23 12:57:44;;;;;;;;;;;;;;;;;;5046329;28;19924;-64
2023/02/23 13:00:23;;;;;;;;;;;;;;;;;;5069821;28;20339;-64
2023/02/23 13:02:49;;;;;;;;;;;;;;;;;;5070264;28;19955;-65
2023/02/23 13:05:15;;;;;;;;;;;;;;;;;;5051573;28;19928;-64
2023/02/23 13:07:41;;;;;;;;;;;;;;;;;;5061272;28;19924;-64
2023/02/23 13:10:07;;;;;;;;;;;;;;;;;;5071246;28;20297;-64
2023/02/23 13:12:34;;;;;;;;;;;;;;;;;;5056881;28;19970;-64
2023/02/23 13:15:00;;;;;;;;;;;;;;;;;;5052888;28;19924;-64
2023/02/23 13:17:26;;;;;;;;;;;;;;;;;;5059603;28;19995;-64
2023/02/23 13:19:52;;;;;;;;;;;;;;;;;;5057378;28;19943;-64
2023/02/23 13:22:18;;;;;;;;;;;;;;;;;;5072033;28;19925;-64
2023/02/23 13:24:44;;;;;;;;;;;;;;;;;;5063652;28;19924;-64
2023/02/23 13:27:10;;;;;;;;;;;;;;;;;;5072436;28;20054;-64
2023/02/23 13:29:36;;;;;;;;;;;;;;;;;;5034981;28;19925;-64
2023/02/23 13:32:02;;;;;;;;;;;;;;;;;;5071935;28;19929;-64
2023/02/23 13:34:28;;;;;;;;;;;;;;;;;;5070986;28;19926;-64
2023/02/23 13:36:54;;;;;;;;;;;;;;;;;;5061941;28;19928;-64
2023/02/23 13:39:20;;;;;;;;;;;;;;;;;;5057149;28;19920;-64
2023/02/23 13:41:45;;;;;;;;;;;;;;;;;;5068649;28;19964;-65
2023/02/23 13:44:11;;;;;;;;;;;;;;;;;;5072095;28;19968;-65
2023/02/23 13:46:37;;;;;;;;;;;;;;;;;;5052661;28;20041;-64
2023/02/23 13:49:03;;;;;;;;;;;;;;;;;;5071826;28;19921;-64
2023/02/23 13:51:29;;;;;;;;;;;;;;;;;;5069776;28;19975;-65
2023/02/23 13:53:55;;;;;;;;;;;;;;;;;;5071961;28;19924;-65
2023/02/23 13:56:23;;;;;;;;;;;;;;;;;;5068764;28;21200;-65
2023/02/23 13:58:49;;;;;;;;;;;;;;;;;;5071832;28;19920;-65
2023/02/23 14:01:15;;;;;;;;;;;;;;;;;;5065710;28;19920;-65
2023/02/23 14:03:41;;;;;;;;;;;;;;;;;;5071106;28;20437;-65
2023/02/23 14:06:06;;;;;;;;;;;;;;;;;;5071279;28;19924;-65
2023/02/23 14:08:33;;;;;;;;;;;;;;;;;;5080750;28;19973;-65
2023/02/23 14:10:59;;;;;;;;;;;;;;;;;;5074809;28;19924;-65
2023/02/23 14:13:25;;;;;;;;;;;;;;;;;;5071785;28;19977;-65
2023/02/23 14:15:52;;;;;;;;;;;;;;;;;;5067125;28;19920;-65
2023/02/23 14:18:19;;;;;;;;;;;;;;;;;;5068765;28;19931;-65
2023/02/23 14:20:45;;;;;;;;;;;;;;;;;;5073482;28;19962;-65
2023/02/23 14:23:11;;;;;;;;;;;;;;;;;;5072684;28;19963;-65
2023/02/23 14:25:37;;;;;;;;;;;;;;;;;;5074729;28;20274;-65
2023/02/23 14:28:05;;;;;;;;;;;;;;;;;;5063322;28;19921;-65
2023/02/23 14:30:31;;;;;;;;;;;;;;;;;;5074317;28;20399;-65
2023/02/23 14:32:57;;;;;;;;;;;;;;;;;;5075167;28;19920;-65
2023/02/23 14:35:23;;;;;;;;;;;;;;;;;;5056118;28;20309;-65
2023/02/23 14:37:49;;;;;;;;;;;;;;;;;;5073008;28;19920;-65
2023/02/23 14:40:15;;;;;;;;;;;;;;;;;;5073650;28;19924;-65
2023/02/23 14:42:41;;;;;;;;;;;;;;;;;;5074476;28;20388;-64
2023/02/23 14:45:07;;;;;;;;;;;;;;;;;;5069622;28;20011;-65
2023/02/23 14:47:34;;;;;;;;;;;;;;;;;;5067272;28;19931;-64
2023/02/23 14:50:00;;;;;;;;;;;;;;;;;;5070632;28;20568;-65
2023/02/23 14:52:26;;;;;;;;;;;;;;;;;;5056817;28;19931;-64
2023/02/23 14:54:51;;;;;;;;;;;;;;;;;;5077258;28;20005;-65
2023/02/23 14:57:17;;;;;;;;;;;;;;;;;;5072888;28;20366;-64
2023/02/23 14:59:43;;;;;;;;;;;;;;;;;;5068551;28;20403;-64
2023/02/23 15:02:09;;;;;;;;;;;;;;;;;;5060222;28;19931;-64
2023/02/23 15:04:37;;;;;;;;;;;;;;;;;;5088971;28;19924;-65
2023/02/23 15:07:03;;;;;;;;;;;;;;;;;;5074247;28;19920;-64
2023/02/23 15:09:29;;;;;;;;;;;;;;;;;;5094243;28;19931;-65
2023/02/23 15:11:55;;;;;;;;;;;;;;;;;;5079530;28;20532;-65
2023/02/23 15:14:21;;;;;;;;;;;;;;;;;;5094283;28;20003;-65
2023/02/23 15:16:47;;;;;;;;;;;;;;;;;;5092701;28;19920;-65
2023/02/23 15:19:13;;;;;;;;;;;;;;;;;;5095424;28;19924;-65
2023/02/23 15:21:39;;;;;;;;;;;;;;;;;;5083912;28;20345;-65
2023/02/23 15:24:05;;;;;;;;;;;;;;;;;;5094707;28;19924;-64
2023/02/23 15:26:31;;;;;;;;;;;;;;;;;;5090388;28;20487;-65
2023/02/23 15:28:56;;;;;;;;;;;;;;;;;;5093129;28;19920;-65
2023/02/23 15:31:22;;;;;;;;;;;;;;;;;;5089092;28;19924;-65
2023/02/23 15:33:49;;;;;;;;;;;;;;;;;;5093315;28;19974;-65
2023/02/23 15:36:15;;;;;;;;;;;;;;;;;;5092550;28;19920;-64
2023/02/23 15:38:41;;;;;;;;;;;;;;;;;;5090563;28;20457;-65
2023/02/23 15:41:07;;;;;;;;;;;;;;;;;;5094509;28;19920;-65
2023/02/23 15:43:33;;;;;;;;;;;;;;;;;;5088317;28;19920;-65
2023/02/23 15:45:59;;;;;;;;;;;;;;;;;;5093064;28;19919;-65
2023/02/23 15:48:24;;;;;;;;;;;;;;;;;;5072308;28;19924;-65
2023/02/23 15:50:52;;;;;;;;;;;;;;;;;;5102863;28;19928;-65
2023/02/23 15:53:18;;;;;;;;;;;;;;;;;;5094034;28;19920;-65
2023/02/23 15:55:44;;;;;;;;;;;;;;;;;;5093721;28;20628;-65
2023/02/23 15:58:12;;;;;;;;;;;;;;;;;;5095014;28;20007;-65
2023/02/23 16:00:38;;;;;;;;;;;;;;;;;;5096127;28;19920;-65
2023/02/23 16:03:04;;;;;;;;;;;;;;;;;;5095153;28;19920;-65
2023/02/23 16:05:36;;;;;;;;;;;;;;;;;;5087837;28;19984;-65
2023/02/23 16:08:05;;;;;;;;;;;;;;;;;;5078353;28;19924;-65
2023/02/23 16:10:30;;;;;;;;;;;;;;;;;;5092115;28;19924;-65
2023/02/23 16:12:56;;;;;;;;;;;;;;;;;;5091509;28;19920;-65
2023/02/23 16:15:22;;;;;;;;;;;;;;;;;;5091845;28;20593;-65
2023/02/23 16:17:48;;;;;;;;;;;;;;;;;;5092136;28;19924;-65
2023/02/23 16:20:14;;;;;;;;;;;;;;;;;;5093030;28;20564;-65
2023/02/23 16:22:40;;;;;;;;;;;;;;;;;;5091601;28;19920;-65
2023/02/23 16:25:06;;;;;;;;;;;;;;;;;;5082714;28;19969;-65
2023/02/23 16:27:32;;;;;;;;;;;;;;;;;;5091401;28;20373;-65
2023/02/23 16:29:59;;;;;;;;;;;;;;;;;;5069913;28;19931;-65
2023/02/23 16:32:25;;;;;;;;;;;;;;;;;;5092533;28;20011;-65
2023/02/23 16:34:50;;;;;;;;;;;;;;;;;;5093431;28;19971;-65
2023/02/23 16:37:16;;;;;;;;;;;;;;;;;;5090905;28;19927;-65
2023/02/23 16:39:42;;;;;;;;;;;;;;;;;;5092203;28;19921;-65
2023/02/23 16:42:08;;;;;;;;;;;;;;;;;;5093398;28;19928;-65
2023/02/23 16:44:34;;;;;;;;;;;;;;;;;;5092473;28;20033;-65
2023/02/23 16:47:00;;;;;;;;;;;;;;;;;;5092254;28;19956;-65
2023/02/23 16:49:28;;;;;;;;;;;;;;;;;;5089949;28;19934;-65
2023/02/23 16:51:54;;;;;;;;;;;;;;;;;;5092239;28;19925;-65
2023/02/23 16:54:20;;;;;;;;;;;;;;;;;;5076192;28;20385;-64
2023/02/23 16:56:46;;;;;;;;;;;;;;;;;;5072740;28;19943;-64
2023/02/23 16:59:12;;;;;;;;;;;;;;;;;;5082529;28;19986;-64
2023/02/23 17:01:38;;;;;;;;;;;;;;;;;;5085966;28;19920;-64
2023/02/23 17:04:04;;;;;;;;;;;;;;;;;;5078512;28;20767;-65
2023/02/23 17:06:30;;;;;;;;;;;;;;;;;;5068070;28;19921;-65
2023/02/23 17:08:56;;;;;;;;;;;;;;;;;;5068968;28;19931;-65
2023/02/23 17:11:22;;;;;;;;;;;;;;;;;;5066866;28;20247;-65
2023/02/23 17:13:47;;;;;;;;;;;;;;;;;;5068526;28;19971;-65
2023/02/23 17:16:13;;;;;;;;;;;;;;;;;;5070248;28;19920;-65
2023/02/23 17:18:39;;;;;;;;;;;;;;;;;;5068719;28;19928;-65
2023/02/23 17:21:06;;;;;;;;;;;;;;;;;;5070342;28;19920;-65
2023/02/23 17:23:41;;;;;;;;;;;;;;;;;;5069198;28;19920;-65
2023/02/23 17:26:07;;;;;;;;;;;;;;;;;;5071598;28;19927;-65
2023/02/23 17:28:33;;;;;;;;;;;;;;;;;;5065833;28;19928;-65
2023/02/23 17:30:58;;;;;;;;;;;;;;;;;;5067471;28;20007;-65
2023/02/23 17:33:26;;;;;;;;;;;;;;;;;;5071299;28;20050;-65
2023/02/23 17:35:52;;;;;;;;;;;;;;;;;;5062824;28;19932;-65
2023/02/23 17:38:20;;;;;;;;;;;;;;;;;;5069120;28;19920;-65
2023/02/23 17:40:46;;;;;;;;;;;;;;;;;;5069502;28;19935;-65
2023/02/23 17:43:12;;;;;;;;;;;;;;;;;;5066501;28;20362;-65
2023/02/23 17:45:38;;;;;;;;;;;;;;;;;;5062469;28;19924;-65
2023/02/23 17:48:04;;;;;;;;;;;;;;;;;;5061961;28;19932;-65
2023/02/23 17:50:30;;;;;;;;;;;;;;;;;;5064708;28;19928;-65
2023/02/23 17:52:56;;;;;;;;;;;;;;;;;;5069421;28;19936;-65
2023/02/23 17:55:22;;;;;;;;;;;;;;;;;;5068346;28;19935;-65
2023/02/23 17:57:47;;;;;;;;;;;;;;;;;;5066663;28;19924;-65